createdAt,value
2019-04-03T00:02:02.698Z,33.18
2019-04-03T00:04:39.451Z,34.88
2019-04-03T00:07:15.936Z,34.08
2019-04-03T00:09:52.476Z,33.08
2019-04-03T00:12:28.466Z,34.98
2019-04-03T00:15:04.910Z,31.60
2019-04-03T00:17:41.603Z,31.93
2019-04-03T00:20:19.560Z,32.95
2019-04-03T00:22:56.322Z,31.85
2019-04-03T00:25:33.442Z,33.15
2019-04-03T00:28:11.508Z,32.80
2019-04-03T00:30:48.335Z,30.08
2019-04-03T00:33:25.245Z,30.12
2019-04-03T00:36:01.985Z,29.18
2019-04-03T00:38:39.360Z,29.65
2019-04-03T00:41:15.971Z,31.00
2019-04-03T00:43:54.046Z,29.15
2019-04-03T00:46:30.301Z,29.67
2019-04-03T00:49:06.905Z,28.83
2019-04-03T00:51:43.762Z,28.77
2019-04-03T00:54:20.600Z,27.32
2019-04-03T00:56:57.659Z,25.27
2019-04-03T00:59:34.002Z,26.87
2019-04-03T01:02:10.708Z,26.70
2019-04-03T01:04:47.470Z,24.98
2019-04-03T01:07:24.314Z,25.68
2019-04-03T01:10:01.610Z,28.02
2019-04-03T01:12:38.306Z,26.37
2019-04-03T01:15:15.230Z,27.98
2019-04-03T01:17:51.624Z,26.82
2019-04-03T01:20:28.236Z,26.70
2019-04-03T01:23:06.905Z,27.07
2019-04-03T01:25:43.504Z,26.97
2019-04-03T01:28:20.390Z,26.68
2019-04-03T01:30:57.227Z,27.87
2019-04-03T01:33:33.764Z,28.75
2019-04-03T01:36:10.139Z,27.58
2019-04-03T01:38:49.241Z,27.42
2019-04-03T01:41:24.760Z,29.05
2019-04-03T01:44:02.432Z,27.73
2019-04-03T01:46:39.104Z,27.00
2019-04-03T01:49:16.347Z,28.10
2019-04-03T01:51:52.892Z,28.90
2019-04-03T01:54:29.232Z,28.00
2019-04-03T01:57:08.469Z,27.40
2019-04-03T01:59:44.618Z,27.80
2019-04-03T02:02:21.616Z,28.50
2019-04-03T02:04:59.061Z,26.55
2019-04-03T02:07:35.907Z,28.05
2019-04-03T02:10:20.477Z,27.58
2019-04-03T02:12:56.743Z,26.25
2019-04-03T02:15:33.206Z,27.22
2019-04-03T02:18:09.503Z,25.82
2019-04-03T02:20:46.017Z,25.75
2019-04-03T02:23:23.985Z,26.00
2019-04-03T02:26:02.007Z,27.22
2019-04-03T02:28:38.322Z,26.48
2019-04-03T02:31:18.401Z,25.90
2019-04-03T02:33:52.619Z,24.67
2019-04-03T02:36:29.216Z,23.38
2019-04-03T02:39:06.151Z,24.02
2019-04-03T02:41:43.239Z,23.50
2019-04-03T02:44:20.037Z,23.10
2019-04-03T02:46:59.459Z,22.62
2019-04-03T02:49:34.225Z,21.25
2019-04-03T02:52:10.948Z,21.68
2019-04-03T02:54:47.467Z,22.25
2019-04-03T02:57:24.329Z,22.10
2019-04-03T03:00:01.700Z,21.30
2019-04-03T03:02:44.101Z,21.02
2019-04-03T03:05:18.659Z,21.70
2019-04-03T03:07:55.502Z,20.97
2019-04-03T03:10:33.434Z,19.32
2019-04-03T03:13:09.992Z,17.50
2019-04-03T03:15:47.297Z,19.07
2019-04-03T03:18:24.613Z,18.67
2019-04-03T03:21:02.043Z,18.37
2019-04-03T03:23:38.883Z,18.40
2019-04-03T03:26:15.963Z,19.55
2019-04-03T03:28:53.428Z,19.07
2019-04-03T03:31:59.226Z,18.67
2019-04-03T03:34:10.277Z,18.77
2019-04-03T03:36:47.532Z,19.65
2019-04-03T03:39:24.484Z,18.32
2019-04-03T03:42:03.158Z,17.37
2019-04-03T03:44:43.914Z,16.73
2019-04-03T03:47:19.287Z,17.55
2019-04-03T03:49:56.668Z,17.35
2019-04-03T03:52:35.978Z,18.25
2019-04-03T03:55:12.055Z,17.25
2019-04-03T03:57:48.858Z,18.05
2019-04-03T04:00:25.759Z,17.60
2019-04-03T04:03:02.975Z,18.15
2019-04-03T04:05:40.860Z,17.92
2019-04-03T04:08:17.417Z,17.35
2019-04-03T04:10:58.093Z,18.05
2019-04-03T04:13:34.841Z,18.10
2019-04-03T04:16:11.696Z,17.60
2019-04-03T04:18:48.352Z,18.80
2019-04-03T04:21:24.998Z,16.82
2019-04-03T04:24:01.967Z,16.82
2019-04-03T04:26:38.799Z,17.07
2019-04-03T04:29:15.393Z,17.50
2019-04-03T04:31:51.995Z,18.20
2019-04-03T04:34:27.965Z,17.20
2019-04-03T04:37:04.731Z,17.15
2019-04-03T04:39:41.125Z,16.70
2019-04-03T04:42:17.677Z,18.67
2019-04-03T04:44:53.994Z,17.98
2019-04-03T04:47:30.481Z,17.73
2019-04-03T04:50:06.804Z,17.57
2019-04-03T04:52:43.428Z,17.48
2019-04-03T04:55:20.210Z,17.95
2019-04-03T04:57:56.937Z,17.17
2019-04-03T05:00:33.925Z,17.55
2019-04-03T05:03:11.245Z,17.27
2019-04-03T05:05:48.090Z,18.17
2019-04-03T05:08:24.018Z,17.50
2019-04-03T05:11:00.586Z,17.25
2019-04-03T05:13:37.408Z,18.32
2019-04-03T05:16:13.895Z,17.35
2019-04-03T05:18:50.377Z,17.42
2019-04-03T05:21:27.240Z,17.92
2019-04-03T05:24:11.404Z,17.60
2019-04-03T05:26:42.057Z,17.70
2019-04-03T05:29:18.872Z,17.07
2019-04-03T05:31:55.463Z,17.67
2019-04-03T05:34:31.738Z,16.70
2019-04-03T05:37:11.443Z,17.27
2019-04-03T05:39:47.018Z,17.98
2019-04-03T05:42:23.407Z,17.90
2019-04-03T05:44:59.933Z,18.55
2019-04-03T05:47:38.912Z,19.20
2019-04-03T05:50:14.662Z,17.30
2019-04-03T05:52:50.969Z,17.55
2019-04-03T05:55:27.563Z,18.00
2019-04-03T05:58:04.290Z,17.85
2019-04-03T06:00:40.623Z,18.15
2019-04-03T06:03:17.093Z,16.57
2019-04-03T06:05:57.556Z,16.93
2019-04-03T06:08:34.787Z,16.95
2019-04-03T06:11:11.602Z,16.27
2019-04-03T06:13:48.270Z,16.45
2019-04-03T06:16:25.078Z,16.37
2019-04-03T06:19:01.205Z,16.70
2019-04-03T06:21:37.391Z,18.27
2019-04-03T06:24:14.137Z,19.80
2019-04-03T06:26:50.499Z,17.98
2019-04-03T06:29:27.455Z,16.73
2019-04-03T06:32:05.763Z,17.30
2019-04-03T06:34:43.714Z,18.05
2019-04-03T06:37:21.651Z,17.87
2019-04-03T06:39:58.524Z,17.35
2019-04-03T06:42:35.079Z,16.65
2019-04-03T06:45:14.951Z,17.05
2019-04-03T06:47:50.160Z,16.65
2019-04-03T06:50:26.370Z,17.73
2019-04-03T06:53:02.492Z,17.02
2019-04-03T06:55:38.622Z,17.77
2019-04-03T06:58:15.411Z,17.00
2019-04-03T07:00:54.368Z,17.77
2019-04-03T07:03:30.646Z,17.92
2019-04-03T07:06:07.048Z,17.40
2019-04-03T07:08:43.779Z,17.07
2019-04-03T07:11:23.808Z,17.12
2019-04-03T07:13:57.879Z,17.48
2019-04-03T07:16:34.258Z,18.10
2019-04-03T07:19:11.021Z,17.90
2019-04-03T07:21:47.914Z,18.02
2019-04-03T07:24:24.414Z,18.55
2019-04-03T07:27:00.965Z,17.90
2019-04-03T07:29:37.405Z,19.30
2019-04-03T07:32:13.872Z,20.08
2019-04-03T07:34:50.394Z,20.43
2019-04-03T07:37:27.213Z,22.82
2019-04-03T07:40:03.882Z,29.67
2019-04-03T07:42:40.551Z,23.32
2019-04-03T07:45:17.354Z,24.07
2019-04-03T07:47:53.778Z,25.12
2019-04-03T07:50:30.043Z,25.37
2019-04-03T07:53:07.816Z,23.52
2019-04-03T07:55:44.401Z,22.77
2019-04-03T07:58:20.941Z,24.00
2019-04-03T08:00:57.316Z,24.92
2019-04-03T08:03:33.932Z,23.92
2019-04-03T08:06:10.163Z,23.32
2019-04-03T08:08:46.586Z,21.17
2019-04-03T08:11:23.043Z,21.95
2019-04-03T08:13:59.543Z,20.75
2019-04-03T08:16:37.246Z,21.20
2019-04-03T08:19:13.230Z,20.20
2019-04-03T08:21:50.261Z,12.28
2019-04-03T08:24:27.937Z,16.12
2019-04-03T08:27:07.422Z,18.57
2019-04-03T08:29:42.181Z,17.65
2019-04-03T08:32:19.523Z,18.80
2019-04-03T08:34:56.037Z,18.48
2019-04-03T08:37:33.176Z,17.05
2019-04-03T08:40:11.842Z,16.67
2019-04-03T08:42:48.663Z,16.05
2019-04-03T08:45:25.681Z,14.03
2019-04-03T08:48:02.628Z,12.58
2019-04-03T08:50:38.996Z,13.38
2019-04-03T08:53:18.406Z,12.78
2019-04-03T08:55:56.573Z,12.70
2019-04-03T08:58:32.661Z,12.70
2019-04-03T09:01:10.688Z,11.85
2019-04-03T09:03:47.520Z,11.40
2019-04-03T09:06:24.223Z,12.10
2019-04-03T09:09:01.227Z,12.90
2019-04-03T09:11:44.197Z,11.22
2019-04-03T09:14:21.032Z,13.08
2019-04-03T09:16:57.853Z,11.63
2019-04-03T09:19:34.457Z,12.13
2019-04-03T09:22:11.162Z,12.98
2019-04-03T09:24:47.794Z,14.23
2019-04-03T09:27:24.405Z,15.35
2019-04-03T09:30:03.265Z,15.25
2019-04-03T09:32:39.981Z,15.40
2019-04-03T09:35:17.251Z,13.65
2019-04-03T09:37:54.304Z,12.68
2019-04-03T09:40:31.900Z,12.13
2019-04-03T09:43:09.306Z,12.37
2019-04-03T09:45:45.877Z,11.48
2019-04-03T09:48:22.283Z,12.13
2019-04-03T09:50:58.884Z,11.85
2019-04-03T09:53:35.457Z,11.95
2019-04-03T09:56:12.224Z,11.85
2019-04-03T09:58:48.737Z,12.47
2019-04-03T10:01:25.299Z,12.95
2019-04-03T10:04:07.419Z,29.20
2019-04-03T10:06:43.821Z,13.75
2019-04-03T10:09:20.297Z,11.08
2019-04-03T10:11:56.927Z,10.93
2019-04-03T10:14:33.357Z,11.05
2019-04-03T10:17:09.822Z,9.70
2019-04-03T10:19:46.343Z,10.70
2019-04-03T10:22:24.160Z,11.10
2019-04-03T10:25:04.835Z,10.75
2019-04-03T10:27:42.675Z,10.80
2019-04-03T10:30:20.923Z,11.12
2019-04-03T10:32:56.939Z,11.12
2019-04-03T10:35:33.978Z,10.90
2019-04-03T10:38:10.498Z,10.43
2019-04-03T10:40:46.834Z,10.78
2019-04-03T10:43:23.753Z,11.12
2019-04-03T10:46:00.646Z,11.12
2019-04-03T10:48:37.458Z,11.22
2019-04-03T10:51:14.196Z,11.40
2019-04-03T10:53:51.514Z,11.93
2019-04-03T10:56:28.995Z,12.85
2019-04-03T10:59:11.387Z,11.93
2019-04-03T11:01:47.049Z,13.70
2019-04-03T11:04:23.478Z,13.90
2019-04-03T11:07:00.462Z,12.50
2019-04-03T11:09:37.171Z,11.93
2019-04-03T11:12:14.269Z,12.93
2019-04-03T11:14:51.568Z,12.80
2019-04-03T11:17:28.460Z,12.35
2019-04-03T11:20:05.201Z,13.25
2019-04-03T11:22:42.768Z,12.78
2019-04-03T11:25:19.559Z,13.08
2019-04-03T11:28:05.506Z,12.68
2019-04-03T11:30:41.924Z,12.82
2019-04-03T11:33:18.368Z,17.10
2019-04-03T11:35:55.611Z,14.43
2019-04-03T11:38:32.951Z,14.25
2019-04-03T11:41:14.876Z,15.32
2019-04-03T11:43:47.772Z,15.68
2019-04-03T11:46:24.156Z,21.60
2019-04-03T11:49:01.292Z,25.25
2019-04-03T11:51:37.918Z,17.40
2019-04-03T11:54:14.733Z,14.78
2019-04-03T11:56:51.236Z,13.70
2019-04-03T11:59:28.334Z,12.70
2019-04-03T12:02:07.524Z,13.65
2019-04-03T12:04:44.213Z,13.13
2019-04-03T12:07:20.920Z,13.15
2019-04-03T12:09:57.745Z,12.95
2019-04-03T12:12:40.168Z,13.22
2019-04-03T12:15:21.417Z,14.78
2019-04-03T12:17:56.834Z,14.47
2019-04-03T12:20:43.717Z,15.63
2019-04-03T12:23:18.742Z,15.08
2019-04-03T12:25:55.869Z,15.30
2019-04-03T12:28:32.714Z,14.25
2019-04-03T12:31:09.929Z,14.70
2019-04-03T12:33:53.183Z,15.05
2019-04-03T12:36:29.730Z,15.55
2019-04-03T12:39:06.419Z,15.15
2019-04-03T12:41:46.020Z,16.23
2019-04-03T12:44:22.650Z,16.42
2019-04-03T12:46:59.398Z,17.00
2019-04-03T12:49:35.811Z,17.30
2019-04-03T12:52:12.545Z,17.10
2019-04-03T12:54:52.856Z,17.17
2019-04-03T12:57:29.133Z,17.52
2019-04-03T13:00:06.258Z,16.37
2019-04-03T13:02:43.742Z,17.50
2019-04-03T13:05:21.389Z,17.82
2019-04-03T13:07:59.677Z,17.90
2019-04-03T13:10:42.595Z,17.67
2019-04-03T13:13:12.687Z,17.27
2019-04-03T13:15:49.401Z,18.30
2019-04-03T13:18:26.458Z,17.98
2019-04-03T13:21:03.778Z,19.15
2019-04-03T13:23:40.939Z,19.45
2019-04-03T13:26:17.577Z,20.52
2019-04-03T13:28:54.473Z,21.35
2019-04-03T13:31:32.134Z,21.25
2019-04-03T13:34:10.359Z,21.50
2019-04-03T13:36:46.701Z,22.05
2019-04-03T13:39:23.214Z,21.23
2019-04-03T13:42:00.446Z,22.50
2019-04-03T13:44:36.603Z,20.80
2019-04-03T13:47:14.797Z,22.30
2019-04-03T13:49:51.193Z,21.07
2019-04-03T13:52:38.701Z,21.05
2019-04-03T13:55:05.759Z,21.70
2019-04-03T13:57:42.684Z,22.75
2019-04-03T14:00:22.978Z,21.70
2019-04-03T14:02:58.316Z,22.13
2019-04-03T14:05:35.096Z,21.02
2019-04-03T14:08:12.866Z,22.35
2019-04-03T14:10:50.048Z,22.67
2019-04-03T14:13:26.644Z,24.63
2019-04-03T14:16:03.100Z,22.62
2019-04-03T14:18:40.752Z,22.85
2019-04-03T14:21:18.428Z,23.85
2019-04-03T14:23:55.446Z,23.45
2019-04-03T14:26:32.165Z,23.40
2019-04-03T14:29:08.938Z,22.90
2019-04-03T14:31:48.924Z,22.62
2019-04-03T14:34:25.527Z,22.77
2019-04-03T14:37:03.407Z,21.55
2019-04-03T14:39:41.261Z,21.77
2019-04-03T14:42:17.449Z,22.45
2019-04-03T14:44:53.935Z,22.13
2019-04-03T14:47:31.016Z,21.57
2019-04-03T14:50:09.140Z,21.93
2019-04-03T14:52:47.663Z,21.37
2019-04-03T14:55:23.536Z,22.45
2019-04-03T14:57:59.797Z,20.62
2019-04-03T15:00:36.905Z,22.00
2019-04-03T15:03:13.693Z,21.93
2019-04-03T15:05:50.275Z,23.67
2019-04-03T15:08:26.912Z,23.85
2019-04-03T15:11:03.818Z,24.18
2019-04-03T15:13:40.361Z,22.32
2019-04-03T15:16:17.346Z,25.77
2019-04-03T15:18:53.781Z,25.57
2019-04-03T15:21:30.889Z,23.98
2019-04-03T15:24:08.779Z,24.07
2019-04-03T15:26:45.023Z,24.05
2019-04-03T15:29:21.637Z,23.32
2019-04-03T15:31:58.183Z,24.60
2019-04-03T15:34:35.156Z,25.30
2019-04-03T15:37:14.185Z,23.55
2019-04-03T15:39:57.049Z,23.95
2019-04-03T15:42:29.499Z,25.23
2019-04-03T15:45:06.578Z,24.45
2019-04-03T15:47:46.777Z,27.20
2019-04-03T15:50:21.915Z,27.05
2019-04-03T15:52:59.141Z,24.90
2019-04-03T15:55:37.939Z,27.02
2019-04-03T15:58:13.783Z,27.30
2019-04-03T16:00:50.452Z,27.75
2019-04-03T16:03:27.406Z,25.70
2019-04-03T16:06:09.046Z,27.13
2019-04-03T16:08:48.457Z,24.85
2019-04-03T16:11:29.234Z,25.92
2019-04-03T16:14:04.936Z,26.87
2019-04-03T16:16:41.232Z,26.95
2019-04-03T16:19:17.747Z,24.87
2019-04-03T16:21:56.942Z,25.20
2019-04-03T16:24:32.871Z,27.62
2019-04-03T16:27:09.833Z,25.15
2019-04-03T16:29:46.960Z,26.27
2019-04-03T16:32:25.909Z,26.02
2019-04-03T16:35:01.733Z,25.60
2019-04-03T16:37:41.516Z,25.12
2019-04-03T16:40:18.436Z,24.90
2019-04-03T16:42:54.710Z,25.27
2019-04-03T16:45:31.490Z,26.60
2019-04-03T16:48:09.137Z,26.95
2019-04-03T16:50:45.246Z,26.40
2019-04-03T16:53:21.838Z,27.15
2019-04-03T16:55:58.545Z,26.65
2019-04-03T16:58:35.279Z,24.63
2019-04-03T17:01:13.892Z,25.27
2019-04-03T17:03:51.483Z,24.90
2019-04-03T17:06:28.653Z,24.77
2019-04-03T17:09:06.995Z,25.60
2019-04-03T17:11:44.928Z,24.05
2019-04-03T17:14:23.886Z,24.27
2019-04-03T17:16:59.542Z,23.75
2019-04-03T17:19:39.133Z,25.43
2019-04-03T17:22:15.679Z,25.27
2019-04-03T17:24:55.734Z,24.82
2019-04-03T17:27:30.961Z,24.02
2019-04-03T17:30:08.933Z,24.77
2019-04-03T17:32:46.218Z,24.60
2019-04-03T17:35:22.890Z,24.12
2019-04-03T17:38:00.782Z,24.10
2019-04-03T17:40:37.324Z,25.30
2019-04-03T17:43:16.616Z,26.70
2019-04-03T17:45:51.830Z,23.30
2019-04-03T17:48:28.538Z,25.10
2019-04-03T17:51:05.050Z,24.85
2019-04-03T17:53:41.534Z,24.52
2019-04-03T17:56:19.194Z,25.30
2019-04-03T17:58:56.237Z,24.57
2019-04-03T18:01:33.530Z,24.47
2019-04-03T18:04:15.623Z,24.45
2019-04-03T18:06:52.535Z,25.82
2019-04-03T18:09:29.186Z,25.45
2019-04-03T18:12:05.834Z,25.92
2019-04-03T18:14:42.753Z,27.73
2019-04-03T18:17:20.530Z,26.07
2019-04-03T18:19:57.090Z,27.40
2019-04-03T18:22:33.822Z,27.20
2019-04-03T18:25:12.571Z,26.62
2019-04-03T18:27:49.027Z,25.70
2019-04-03T18:30:25.830Z,26.07
2019-04-03T18:33:02.175Z,26.33
2019-04-03T18:35:38.867Z,27.62
2019-04-03T18:38:15.367Z,26.75
2019-04-03T18:40:52.091Z,26.10
2019-04-03T18:43:28.779Z,26.33
2019-04-03T18:46:05.406Z,25.32
2019-04-03T18:48:52.800Z,25.10
2019-04-03T18:51:20.317Z,25.88
2019-04-03T18:53:56.970Z,25.32
2019-04-03T18:56:33.625Z,26.93
2019-04-03T18:59:10.305Z,26.02
2019-04-03T19:01:46.613Z,26.33
2019-04-03T19:04:23.179Z,24.52
2019-04-03T19:06:59.685Z,27.15
2019-04-03T19:09:36.398Z,26.17
2019-04-03T19:12:13.379Z,26.97
2019-04-03T19:14:50.417Z,25.27
2019-04-03T19:17:36.448Z,26.00
2019-04-03T19:20:13.145Z,27.50
2019-04-03T19:23:01.594Z,28.25
2019-04-03T19:25:29.651Z,27.48
2019-04-03T19:28:06.525Z,26.12
2019-04-03T19:30:42.914Z,28.85
2019-04-03T19:33:20.427Z,27.07
2019-04-03T19:35:58.536Z,25.35
2019-04-03T19:38:35.826Z,24.00
2019-04-03T19:41:12.837Z,26.25
2019-04-03T19:43:49.591Z,25.15
2019-04-03T19:46:26.242Z,25.20
2019-04-03T19:49:03.068Z,23.80
2019-04-03T19:51:39.639Z,23.57
2019-04-03T19:54:16.768Z,24.32
2019-04-03T19:56:56.249Z,24.25
2019-04-03T19:59:34.330Z,23.62
2019-04-03T20:02:10.248Z,24.05
2019-04-03T20:04:47.726Z,25.85
2019-04-03T20:07:26.757Z,25.80
2019-04-03T20:10:03.713Z,22.93
2019-04-03T20:12:41.129Z,26.10
2019-04-03T20:15:18.051Z,27.00
2019-04-03T20:17:54.896Z,27.90
2019-04-03T20:20:33.550Z,28.32
2019-04-03T20:23:10.700Z,27.22
2019-04-03T20:25:47.779Z,26.57
2019-04-03T20:28:24.654Z,23.10
2019-04-03T20:31:01.615Z,24.25
2019-04-03T20:33:37.811Z,24.98
2019-04-03T20:36:16.511Z,24.98
2019-04-03T20:38:52.100Z,23.67
2019-04-03T20:41:29.459Z,24.90
2019-04-03T20:44:06.154Z,25.08
2019-04-03T20:46:42.928Z,26.65
2019-04-03T20:49:19.023Z,28.15
2019-04-03T20:51:55.682Z,30.05
2019-04-03T20:54:32.439Z,29.75
2019-04-03T20:57:09.373Z,31.55
2019-04-03T20:59:58.380Z,25.48
2019-04-03T21:02:24.803Z,23.83
2019-04-03T21:05:01.782Z,28.92
2019-04-03T21:07:39.721Z,24.25
2019-04-03T21:10:16.560Z,28.75
2019-04-03T21:12:53.046Z,29.12
2019-04-03T21:15:29.553Z,28.02
2019-04-03T21:18:06.219Z,30.57
2019-04-03T21:20:42.665Z,30.10
2019-04-03T21:23:19.156Z,30.68
2019-04-03T21:25:55.756Z,32.70
2019-04-03T21:28:33.183Z,36.28
2019-04-03T21:31:10.220Z,39.65
2019-04-03T21:33:46.864Z,38.42
2019-04-03T21:36:23.925Z,36.95
2019-04-03T21:39:00.575Z,36.10
2019-04-03T21:41:38.642Z,37.05
2019-04-03T21:44:15.321Z,37.67
2019-04-03T21:46:51.950Z,34.27
2019-04-03T21:49:28.618Z,34.50
2019-04-03T21:52:05.455Z,32.93
2019-04-03T21:54:42.031Z,33.65
2019-04-03T21:57:18.261Z,35.48
2019-04-03T21:59:54.493Z,34.65
2019-04-03T22:02:31.095Z,36.73
2019-04-03T22:05:08.191Z,37.58
2019-04-03T22:07:44.789Z,35.45
2019-04-03T22:10:21.433Z,41.50
2019-04-03T22:12:58.398Z,44.35
2019-04-03T22:15:35.151Z,44.63
2019-04-03T22:18:11.895Z,42.53
2019-04-03T22:20:48.454Z,42.65
2019-04-03T22:23:24.784Z,43.58
2019-04-03T22:26:01.826Z,40.95
2019-04-03T22:28:38.297Z,38.78
2019-04-03T22:31:14.952Z,40.15
2019-04-03T22:33:53.865Z,42.73
2019-04-03T22:36:33.370Z,43.58
2019-04-03T22:39:09.254Z,43.17
2019-04-03T22:41:46.151Z,41.42
2019-04-03T22:44:22.827Z,41.68
2019-04-03T22:46:59.460Z,37.53
2019-04-03T22:49:36.298Z,41.90
2019-04-03T22:52:13.120Z,42.78
2019-04-03T22:54:49.949Z,42.93
2019-04-03T22:57:26.422Z,43.25
2019-04-03T23:00:03.077Z,41.60
2019-04-03T23:02:41.389Z,38.08
2019-04-03T23:05:17.871Z,36.00
2019-04-03T23:07:54.492Z,36.65
2019-04-03T23:10:37.675Z,37.50
2019-04-03T23:13:15.410Z,33.08
2019-04-03T23:15:51.986Z,34.18
2019-04-03T23:18:28.842Z,36.08
2019-04-03T23:21:06.340Z,43.42
2019-04-03T23:24:01.134Z,45.45
2019-04-03T23:26:37.797Z,42.93
2019-04-03T23:29:15.619Z,39.53
2019-04-03T23:31:51.897Z,38.73
2019-04-03T23:34:28.508Z,37.93
2019-04-03T23:37:05.247Z,38.10
2019-04-03T23:39:41.619Z,50.48
2019-04-03T23:42:18.049Z,55.12
2019-04-03T23:44:54.111Z,57.03
2019-04-03T23:47:30.842Z,48.08
2019-04-03T23:50:07.488Z,50.03
2019-04-03T23:52:44.028Z,49.50
2019-04-03T23:55:21.089Z,47.23
2019-04-03T23:57:57.456Z,52.15
